sensor_id;sensor_type;location;lat;lon;timestamp;P1;durP1;ratioP1;P2;durP2;ratioP2
2868;SDS011;1442;47.448;8.582;2023-08-20T00:01:16;10.15;;;6.03;;
2868;SDS011;1442;47.448;8.582;2023-08-20T00:03:48;8.73;;;5.47;;
2868;SDS011;1442;47.448;8.582;2023-08-20T00:06:15;8.93;;;5.70;;
2868;SDS011;1442;47.448;8.582;2023-08-20T00:08:42;11.50;;;5.93;;
2868;SDS011;1442;47.448;8.582;2023-08-20T00:11:10;11.32;;;6.05;;
2868;SDS011;1442;47.448;8.582;2023-08-20T00:13:38;11.55;;;6.18;;
2868;SDS011;1442;47.448;8.582;2023-08-20T00:16:05;11.50;;;6.25;;
2868;SDS011;1442;47.448;8.582;2023-08-20T00:18:33;14.48;;;5.80;;
2868;SDS011;1442;47.448;8.582;2023-08-20T00:21:01;8.70;;;5.68;;
2868;SDS011;1442;47.448;8.582;2023-08-20T00:23:29;11.13;;;5.95;;
2868;SDS011;1442;47.448;8.582;2023-08-20T00:25:57;11.27;;;6.40;;
2868;SDS011;1442;47.448;8.582;2023-08-20T00:28:24;10.95;;;6.07;;
2868;SDS011;1442;47.448;8.582;2023-08-20T00:30:51;13.02;;;6.47;;
2868;SDS011;1442;47.448;8.582;2023-08-20T00:33:19;11.07;;;6.63;;
2868;SDS011;1442;47.448;8.582;2023-08-20T00:35:46;11.30;;;6.23;;
2868;SDS011;1442;47.448;8.582;2023-08-20T00:38:14;11.23;;;6.25;;
2868;SDS011;1442;47.448;8.582;2023-08-20T00:40:41;10.68;;;6.15;;
2868;SDS011;1442;47.448;8.582;2023-08-20T00:43:08;11.90;;;6.43;;
2868;SDS011;1442;47.448;8.582;2023-08-20T00:45:36;11.60;;;6.07;;
2868;SDS011;1442;47.448;8.582;2023-08-20T00:48:03;10.98;;;6.18;;
2868;SDS011;1442;47.448;8.582;2023-08-20T00:50:31;15.15;;;6.40;;
2868;SDS011;1442;47.448;8.582;2023-08-20T00:52:58;8.55;;;6.28;;
2868;SDS011;1442;47.448;8.582;2023-08-20T00:55:26;11.38;;;6.22;;
2868;SDS011;1442;47.448;8.582;2023-08-20T00:57:53;10.30;;;5.88;;
2868;SDS011;1442;47.448;8.582;2023-08-20T01:00:21;10.83;;;6.57;;
2868;SDS011;1442;47.448;8.582;2023-08-20T01:02:50;12.55;;;6.38;;
2868;SDS011;1442;47.448;8.582;2023-08-20T01:05:17;9.27;;;6.25;;
2868;SDS011;1442;47.448;8.582;2023-08-20T01:07:51;10.65;;;6.63;;
2868;SDS011;1442;47.448;8.582;2023-08-20T01:10:22;11.48;;;6.50;;
2868;SDS011;1442;47.448;8.582;2023-08-20T01:12:53;8.57;;;6.00;;
2868;SDS011;1442;47.448;8.582;2023-08-20T01:15:20;13.07;;;6.40;;
2868;SDS011;1442;47.448;8.582;2023-08-20T01:17:48;8.73;;;6.50;;
2868;SDS011;1442;47.448;8.582;2023-08-20T01:20:16;10.10;;;6.18;;
2868;SDS011;1442;47.448;8.582;2023-08-20T01:25:31;10.07;;;6.03;;
2868;SDS011;1442;47.448;8.582;2023-08-20T01:28:03;12.88;;;6.35;;
2868;SDS011;1442;47.448;8.582;2023-08-20T01:30:34;9.90;;;6.10;;
2868;SDS011;1442;47.448;8.582;2023-08-20T01:33:01;10.27;;;6.07;;
2868;SDS011;1442;47.448;8.582;2023-08-20T01:35:28;10.25;;;6.32;;
2868;SDS011;1442;47.448;8.582;2023-08-20T01:37:56;10.35;;;6.43;;
2868;SDS011;1442;47.448;8.582;2023-08-20T01:40:23;12.07;;;6.50;;
2868;SDS011;1442;47.448;8.582;2023-08-20T01:42:50;12.32;;;7.03;;
2868;SDS011;1442;47.448;8.582;2023-08-20T01:45:17;9.95;;;6.53;;
2868;SDS011;1442;47.448;8.582;2023-08-20T01:47:45;10.85;;;6.78;;
2868;SDS011;1442;47.448;8.582;2023-08-20T01:50:12;10.95;;;6.60;;
2868;SDS011;1442;47.448;8.582;2023-08-20T01:52:40;12.53;;;6.67;;
2868;SDS011;1442;47.448;8.582;2023-08-20T01:55:07;13.43;;;6.93;;
2868;SDS011;1442;47.448;8.582;2023-08-20T01:57:34;10.87;;;6.90;;
2868;SDS011;1442;47.448;8.582;2023-08-20T02:00:02;9.32;;;6.38;;
2868;SDS011;1442;47.448;8.582;2023-08-20T02:02:30;8.07;;;6.18;;
2868;SDS011;1442;47.448;8.582;2023-08-20T02:04:58;10.80;;;6.93;;
2868;SDS011;1442;47.448;8.582;2023-08-20T02:07:25;9.90;;;6.40;;
2868;SDS011;1442;47.448;8.582;2023-08-20T02:09:53;9.98;;;6.25;;
2868;SDS011;1442;47.448;8.582;2023-08-20T02:12:20;8.20;;;6.45;;
2868;SDS011;1442;47.448;8.582;2023-08-20T02:14:47;11.77;;;6.50;;
2868;SDS011;1442;47.448;8.582;2023-08-20T02:17:14;9.60;;;6.57;;
2868;SDS011;1442;47.448;8.582;2023-08-20T02:19:41;10.60;;;6.68;;
2868;SDS011;1442;47.448;8.582;2023-08-20T02:22:10;11.40;;;6.47;;
2868;SDS011;1442;47.448;8.582;2023-08-20T02:24:37;10.27;;;6.72;;
2868;SDS011;1442;47.448;8.582;2023-08-20T02:27:04;11.00;;;6.45;;
2868;SDS011;1442;47.448;8.582;2023-08-20T02:29:31;11.55;;;6.13;;
2868;SDS011;1442;47.448;8.582;2023-08-20T02:31:58;11.05;;;6.72;;
2868;SDS011;1442;47.448;8.582;2023-08-20T02:34:25;9.10;;;6.38;;
2868;SDS011;1442;47.448;8.582;2023-08-20T02:36:52;10.40;;;7.30;;
2868;SDS011;1442;47.448;8.582;2023-08-20T02:39:21;12.63;;;6.53;;
2868;SDS011;1442;47.448;8.582;2023-08-20T02:41:50;11.32;;;6.88;;
2868;SDS011;1442;47.448;8.582;2023-08-20T02:44:17;11.95;;;6.88;;
2868;SDS011;1442;47.448;8.582;2023-08-20T02:46:44;10.02;;;6.13;;
2868;SDS011;1442;47.448;8.582;2023-08-20T02:49:11;10.27;;;6.97;;
2868;SDS011;1442;47.448;8.582;2023-08-20T02:51:39;10.45;;;7.20;;
2868;SDS011;1442;47.448;8.582;2023-08-20T02:54:07;11.43;;;6.57;;
2868;SDS011;1442;47.448;8.582;2023-08-20T02:56:36;9.52;;;6.70;;
2868;SDS011;1442;47.448;8.582;2023-08-20T02:59:03;12.88;;;7.07;;
2868;SDS011;1442;47.448;8.582;2023-08-20T03:01:30;12.85;;;7.20;;
2868;SDS011;1442;47.448;8.582;2023-08-20T03:03:57;14.38;;;6.57;;
2868;SDS011;1442;47.448;8.582;2023-08-20T03:06:24;11.05;;;6.80;;
2868;SDS011;1442;47.448;8.582;2023-08-20T03:08:51;12.40;;;6.97;;
2868;SDS011;1442;47.448;8.582;2023-08-20T03:11:18;10.77;;;6.75;;
2868;SDS011;1442;47.448;8.582;2023-08-20T03:13:47;12.85;;;7.47;;
2868;SDS011;1442;47.448;8.582;2023-08-20T03:16:14;12.65;;;7.07;;
2868;SDS011;1442;47.448;8.582;2023-08-20T03:18:41;9.63;;;7.05;;
2868;SDS011;1442;47.448;8.582;2023-08-20T03:21:08;10.43;;;7.00;;
2868;SDS011;1442;47.448;8.582;2023-08-20T03:23:36;12.07;;;7.20;;
2868;SDS011;1442;47.448;8.582;2023-08-20T03:26:03;11.85;;;7.35;;
2868;SDS011;1442;47.448;8.582;2023-08-20T03:28:30;11.38;;;7.40;;
2868;SDS011;1442;47.448;8.582;2023-08-20T03:31:00;15.27;;;7.47;;
2868;SDS011;1442;47.448;8.582;2023-08-20T03:33:27;11.93;;;7.30;;
2868;SDS011;1442;47.448;8.582;2023-08-20T03:35:54;10.02;;;7.53;;
2868;SDS011;1442;47.448;8.582;2023-08-20T03:38:21;12.50;;;7.63;;
2868;SDS011;1442;47.448;8.582;2023-08-20T03:40:49;9.57;;;7.05;;
2868;SDS011;1442;47.448;8.582;2023-08-20T03:43:17;9.35;;;7.03;;
2868;SDS011;1442;47.448;8.582;2023-08-20T03:45:44;11.23;;;7.55;;
2868;SDS011;1442;47.448;8.582;2023-08-20T03:48:12;10.18;;;7.10;;
2868;SDS011;1442;47.448;8.582;2023-08-20T03:50:39;8.90;;;6.97;;
2868;SDS011;1442;47.448;8.582;2023-08-20T03:53:06;11.02;;;7.25;;
2868;SDS011;1442;47.448;8.582;2023-08-20T03:55:33;12.93;;;7.28;;
2868;SDS011;1442;47.448;8.582;2023-08-20T03:58:01;13.75;;;7.40;;
2868;SDS011;1442;47.448;8.582;2023-08-20T04:00:28;14.25;;;7.55;;
2868;SDS011;1442;47.448;8.582;2023-08-20T04:02:55;14.93;;;8.00;;
2868;SDS011;1442;47.448;8.582;2023-08-20T04:05:24;12.35;;;7.57;;
2868;SDS011;1442;47.448;8.582;2023-08-20T04:07:51;10.43;;;6.57;;
2868;SDS011;1442;47.448;8.582;2023-08-20T04:10:18;11.60;;;6.88;;
2868;SDS011;1442;47.448;8.582;2023-08-20T04:12:45;11.07;;;7.32;;
2868;SDS011;1442;47.448;8.582;2023-08-20T04:15:13;9.40;;;7.53;;
2868;SDS011;1442;47.448;8.582;2023-08-20T04:17:40;9.57;;;7.50;;
2868;SDS011;1442;47.448;8.582;2023-08-20T04:20:07;11.52;;;7.30;;
2868;SDS011;1442;47.448;8.582;2023-08-20T04:22:36;12.13;;;7.28;;
2868;SDS011;1442;47.448;8.582;2023-08-20T04:25:03;10.48;;;7.05;;
2868;SDS011;1442;47.448;8.582;2023-08-20T04:27:30;12.10;;;7.23;;
2868;SDS011;1442;47.448;8.582;2023-08-20T04:29:57;13.40;;;7.43;;
2868;SDS011;1442;47.448;8.582;2023-08-20T04:32:25;12.65;;;7.50;;
2868;SDS011;1442;47.448;8.582;2023-08-20T04:34:52;14.98;;;8.10;;
2868;SDS011;1442;47.448;8.582;2023-08-20T04:37:19;13.73;;;8.30;;
2868;SDS011;1442;47.448;8.582;2023-08-20T04:39:48;13.40;;;8.27;;
2868;SDS011;1442;47.448;8.582;2023-08-20T04:42:15;12.82;;;8.30;;
2868;SDS011;1442;47.448;8.582;2023-08-20T04:44:42;14.80;;;8.52;;
2868;SDS011;1442;47.448;8.582;2023-08-20T04:47:10;13.00;;;8.07;;
2868;SDS011;1442;47.448;8.582;2023-08-20T04:49:38;15.30;;;8.07;;
2868;SDS011;1442;47.448;8.582;2023-08-20T04:52:05;11.63;;;7.88;;
2868;SDS011;1442;47.448;8.582;2023-08-20T04:54:32;13.37;;;8.10;;
2868;SDS011;1442;47.448;8.582;2023-08-20T04:57:00;13.63;;;8.13;;
2868;SDS011;1442;47.448;8.582;2023-08-20T04:59:27;12.50;;;7.87;;
2868;SDS011;1442;47.448;8.582;2023-08-20T05:01:55;13.77;;;7.97;;
2868;SDS011;1442;47.448;8.582;2023-08-20T05:04:22;13.15;;;8.40;;
2868;SDS011;1442;47.448;8.582;2023-08-20T05:06:49;14.73;;;8.48;;
2868;SDS011;1442;47.448;8.582;2023-08-20T05:09:16;15.55;;;8.38;;
2868;SDS011;1442;47.448;8.582;2023-08-20T05:11:43;15.33;;;8.00;;
2868;SDS011;1442;47.448;8.582;2023-08-20T05:14:12;12.02;;;7.57;;
2868;SDS011;1442;47.448;8.582;2023-08-20T05:16:39;13.98;;;7.85;;
2868;SDS011;1442;47.448;8.582;2023-08-20T05:19:06;13.63;;;7.32;;
2868;SDS011;1442;47.448;8.582;2023-08-20T05:21:33;10.23;;;7.25;;
2868;SDS011;1442;47.448;8.582;2023-08-20T05:24:00;13.05;;;7.72;;
2868;SDS011;1442;47.448;8.582;2023-08-20T05:26:28;12.63;;;8.00;;
2868;SDS011;1442;47.448;8.582;2023-08-20T05:28:55;12.30;;;7.85;;
2868;SDS011;1442;47.448;8.582;2023-08-20T05:31:24;15.32;;;8.40;;
2868;SDS011;1442;47.448;8.582;2023-08-20T05:33:51;11.98;;;8.23;;
2868;SDS011;1442;47.448;8.582;2023-08-20T05:36:18;12.13;;;7.65;;
2868;SDS011;1442;47.448;8.582;2023-08-20T05:38:45;15.83;;;8.57;;
2868;SDS011;1442;47.448;8.582;2023-08-20T05:41:12;14.63;;;7.93;;
2868;SDS011;1442;47.448;8.582;2023-08-20T05:43:39;12.60;;;7.53;;
2868;SDS011;1442;47.448;8.582;2023-08-20T05:46:06;15.57;;;8.75;;
2868;SDS011;1442;47.448;8.582;2023-08-20T05:48:35;14.63;;;8.43;;
2868;SDS011;1442;47.448;8.582;2023-08-20T05:51:02;14.23;;;7.68;;
2868;SDS011;1442;47.448;8.582;2023-08-20T05:53:29;12.73;;;8.07;;
2868;SDS011;1442;47.448;8.582;2023-08-20T05:55:56;11.35;;;7.95;;
2868;SDS011;1442;47.448;8.582;2023-08-20T05:58:23;12.85;;;7.75;;
2868;SDS011;1442;47.448;8.582;2023-08-20T06:00:50;13.93;;;7.38;;
2868;SDS011;1442;47.448;8.582;2023-08-20T06:03:17;14.00;;;8.27;;
2868;SDS011;1442;47.448;8.582;2023-08-20T06:05:46;12.75;;;7.60;;
2868;SDS011;1442;47.448;8.582;2023-08-20T06:08:13;10.98;;;7.65;;
2868;SDS011;1442;47.448;8.582;2023-08-20T06:10:40;16.70;;;7.70;;
2868;SDS011;1442;47.448;8.582;2023-08-20T06:13:08;16.15;;;8.70;;
2868;SDS011;1442;47.448;8.582;2023-08-20T06:15:35;16.80;;;8.40;;
2868;SDS011;1442;47.448;8.582;2023-08-20T06:18:02;12.38;;;7.72;;
2868;SDS011;1442;47.448;8.582;2023-08-20T06:20:29;12.67;;;8.10;;
2868;SDS011;1442;47.448;8.582;2023-08-20T06:22:58;16.08;;;8.25;;
2868;SDS011;1442;47.448;8.582;2023-08-20T06:25:25;11.15;;;8.18;;
2868;SDS011;1442;47.448;8.582;2023-08-20T06:27:52;13.10;;;8.05;;
2868;SDS011;1442;47.448;8.582;2023-08-20T06:30:19;13.57;;;8.00;;
2868;SDS011;1442;47.448;8.582;2023-08-20T06:32:46;13.77;;;8.40;;
2868;SDS011;1442;47.448;8.582;2023-08-20T06:35:13;16.05;;;7.60;;
2868;SDS011;1442;47.448;8.582;2023-08-20T06:37:40;14.52;;;8.20;;
2868;SDS011;1442;47.448;8.582;2023-08-20T06:40:09;14.30;;;8.15;;
2868;SDS011;1442;47.448;8.582;2023-08-20T06:42:38;14.05;;;7.80;;
2868;SDS011;1442;47.448;8.582;2023-08-20T06:45:06;11.70;;;7.72;;
2868;SDS011;1442;47.448;8.582;2023-08-20T06:47:33;12.73;;;7.50;;
2868;SDS011;1442;47.448;8.582;2023-08-20T06:50:00;13.13;;;7.95;;
2868;SDS011;1442;47.448;8.582;2023-08-20T06:52:28;13.05;;;8.10;;
2868;SDS011;1442;47.448;8.582;2023-08-20T06:54:55;12.68;;;7.70;;
2868;SDS011;1442;47.448;8.582;2023-08-20T06:57:24;14.57;;;7.97;;
2868;SDS011;1442;47.448;8.582;2023-08-20T06:59:51;12.93;;;8.35;;
2868;SDS011;1442;47.448;8.582;2023-08-20T07:02:18;12.10;;;7.70;;
2868;SDS011;1442;47.448;8.582;2023-08-20T07:04:45;17.67;;;8.32;;
2868;SDS011;1442;47.448;8.582;2023-08-20T07:07:12;12.73;;;8.00;;
2868;SDS011;1442;47.448;8.582;2023-08-20T07:09:39;13.40;;;7.63;;
2868;SDS011;1442;47.448;8.582;2023-08-20T07:12:07;15.30;;;8.10;;
2868;SDS011;1442;47.448;8.582;2023-08-20T07:14:35;18.38;;;8.18;;
2868;SDS011;1442;47.448;8.582;2023-08-20T07:17:02;13.63;;;8.30;;
2868;SDS011;1442;47.448;8.582;2023-08-20T07:19:30;16.08;;;8.77;;
2868;SDS011;1442;47.448;8.582;2023-08-20T07:21:57;15.50;;;8.23;;
2868;SDS011;1442;47.448;8.582;2023-08-20T07:24:24;12.75;;;8.32;;
2868;SDS011;1442;47.448;8.582;2023-08-20T07:26:52;15.30;;;8.23;;
2868;SDS011;1442;47.448;8.582;2023-08-20T07:29:24;18.63;;;9.00;;
2868;SDS011;1442;47.448;8.582;2023-08-20T07:31:52;19.35;;;9.05;;
2868;SDS011;1442;47.448;8.582;2023-08-20T07:34:19;20.85;;;9.27;;
2868;SDS011;1442;47.448;8.582;2023-08-20T07:36:46;12.87;;;8.73;;
2868;SDS011;1442;47.448;8.582;2023-08-20T07:39:14;14.13;;;8.52;;
2868;SDS011;1442;47.448;8.582;2023-08-20T07:41:41;11.38;;;8.55;;
2868;SDS011;1442;47.448;8.582;2023-08-20T07:44:08;16.52;;;8.60;;
2868;SDS011;1442;47.448;8.582;2023-08-20T07:46:36;13.20;;;8.93;;
2868;SDS011;1442;47.448;8.582;2023-08-20T07:49:04;16.83;;;9.30;;
2868;SDS011;1442;47.448;8.582;2023-08-20T07:51:31;16.50;;;9.05;;
2868;SDS011;1442;47.448;8.582;2023-08-20T07:53:58;12.65;;;8.73;;
2868;SDS011;1442;47.448;8.582;2023-08-20T07:56:26;11.38;;;8.32;;
2868;SDS011;1442;47.448;8.582;2023-08-20T07:58:53;15.15;;;8.65;;
2868;SDS011;1442;47.448;8.582;2023-08-20T08:01:20;12.63;;;8.77;;
2868;SDS011;1442;47.448;8.582;2023-08-20T08:03:47;17.88;;;9.70;;
2868;SDS011;1442;47.448;8.582;2023-08-20T08:06:16;12.25;;;8.95;;
2868;SDS011;1442;47.448;8.582;2023-08-20T08:08:45;13.80;;;8.07;;
2868;SDS011;1442;47.448;8.582;2023-08-20T08:11:12;15.25;;;8.52;;
2868;SDS011;1442;47.448;8.582;2023-08-20T08:13:39;12.87;;;8.00;;
2868;SDS011;1442;47.448;8.582;2023-08-20T08:16:06;12.07;;;8.80;;
2868;SDS011;1442;47.448;8.582;2023-08-20T08:18:33;13.52;;;8.38;;
2868;SDS011;1442;47.448;8.582;2023-08-20T08:21:00;17.33;;;8.27;;
2868;SDS011;1442;47.448;8.582;2023-08-20T08:23:29;17.50;;;8.67;;
2868;SDS011;1442;47.448;8.582;2023-08-20T08:25:56;16.77;;;7.73;;
2868;SDS011;1442;47.448;8.582;2023-08-20T08:28:23;14.52;;;7.93;;
2868;SDS011;1442;47.448;8.582;2023-08-20T08:30:50;15.68;;;7.80;;
2868;SDS011;1442;47.448;8.582;2023-08-20T08:33:18;12.98;;;7.53;;
2868;SDS011;1442;47.448;8.582;2023-08-20T08:35:45;11.15;;;7.22;;
2868;SDS011;1442;47.448;8.582;2023-08-20T08:38:12;12.93;;;8.05;;
2868;SDS011;1442;47.448;8.582;2023-08-20T08:40:40;16.13;;;7.73;;
2868;SDS011;1442;47.448;8.582;2023-08-20T08:43:08;12.85;;;7.90;;
2868;SDS011;1442;47.448;8.582;2023-08-20T08:45:41;13.15;;;8.02;;
2868;SDS011;1442;47.448;8.582;2023-08-20T08:48:09;16.03;;;7.60;;
2868;SDS011;1442;47.448;8.582;2023-08-20T08:50:36;11.68;;;7.72;;
2868;SDS011;1442;47.448;8.582;2023-08-20T08:53:03;16.92;;;7.95;;
2868;SDS011;1442;47.448;8.582;2023-08-20T08:55:31;13.15;;;7.82;;
2868;SDS011;1442;47.448;8.582;2023-08-20T08:58:00;14.73;;;8.43;;
2868;SDS011;1442;47.448;8.582;2023-08-20T09:00:27;14.40;;;7.80;;
2868;SDS011;1442;47.448;8.582;2023-08-20T09:02:57;12.97;;;7.93;;
2868;SDS011;1442;47.448;8.582;2023-08-20T09:05:24;16.90;;;7.30;;
2868;SDS011;1442;47.448;8.582;2023-08-20T09:07:55;10.02;;;7.60;;
2868;SDS011;1442;47.448;8.582;2023-08-20T09:10:25;13.30;;;7.50;;
2868;SDS011;1442;47.448;8.582;2023-08-20T09:12:52;12.53;;;7.63;;
2868;SDS011;1442;47.448;8.582;2023-08-20T09:15:22;11.98;;;8.13;;
2868;SDS011;1442;47.448;8.582;2023-08-20T09:17:56;11.75;;;7.53;;
2868;SDS011;1442;47.448;8.582;2023-08-20T09:20:33;14.30;;;7.65;;
2868;SDS011;1442;47.448;8.582;2023-08-20T09:23:00;12.77;;;8.43;;
2868;SDS011;1442;47.448;8.582;2023-08-20T09:25:27;13.25;;;7.68;;
2868;SDS011;1442;47.448;8.582;2023-08-20T09:27:54;10.50;;;7.10;;
2868;SDS011;1442;47.448;8.582;2023-08-20T09:30:23;11.20;;;6.97;;
2868;SDS011;1442;47.448;8.582;2023-08-20T09:33:02;11.77;;;6.97;;
2868;SDS011;1442;47.448;8.582;2023-08-20T09:35:29;11.60;;;7.07;;
2868;SDS011;1442;47.448;8.582;2023-08-20T09:37:58;12.57;;;6.70;;
2868;SDS011;1442;47.448;8.582;2023-08-20T09:40:26;15.10;;;6.90;;
2868;SDS011;1442;47.448;8.582;2023-08-20T09:42:54;17.40;;;6.95;;
2868;SDS011;1442;47.448;8.582;2023-08-20T09:45:22;12.75;;;6.72;;
2868;SDS011;1442;47.448;8.582;2023-08-20T09:47:52;16.33;;;6.95;;
2868;SDS011;1442;47.448;8.582;2023-08-20T09:50:21;10.35;;;6.72;;
2868;SDS011;1442;47.448;8.582;2023-08-20T09:52:50;16.25;;;6.88;;
2868;SDS011;1442;47.448;8.582;2023-08-20T09:55:20;13.07;;;7.30;;
2868;SDS011;1442;47.448;8.582;2023-08-20T09:57:48;13.60;;;7.17;;
2868;SDS011;1442;47.448;8.582;2023-08-20T10:00:15;12.70;;;6.75;;
2868;SDS011;1442;47.448;8.582;2023-08-20T10:02:44;12.90;;;6.40;;
2868;SDS011;1442;47.448;8.582;2023-08-20T10:05:11;13.50;;;7.28;;
2868;SDS011;1442;47.448;8.582;2023-08-20T10:07:40;11.95;;;6.65;;
2868;SDS011;1442;47.448;8.582;2023-08-20T10:10:09;14.70;;;6.83;;
2868;SDS011;1442;47.448;8.582;2023-08-20T10:12:38;12.27;;;6.75;;
2868;SDS011;1442;47.448;8.582;2023-08-20T10:15:07;12.27;;;6.60;;
2868;SDS011;1442;47.448;8.582;2023-08-20T10:17:35;13.25;;;7.50;;
2868;SDS011;1442;47.448;8.582;2023-08-20T10:20:03;15.45;;;7.00;;
2868;SDS011;1442;47.448;8.582;2023-08-20T10:22:35;12.43;;;6.68;;
2868;SDS011;1442;47.448;8.582;2023-08-20T10:25:05;17.20;;;7.22;;
2868;SDS011;1442;47.448;8.582;2023-08-20T10:27:32;12.82;;;7.45;;
2868;SDS011;1442;47.448;8.582;2023-08-20T10:30:00;16.70;;;7.22;;
2868;SDS011;1442;47.448;8.582;2023-08-20T10:32:43;13.77;;;7.20;;
2868;SDS011;1442;47.448;8.582;2023-08-20T10:35:12;16.87;;;6.73;;
2868;SDS011;1442;47.448;8.582;2023-08-20T10:37:40;14.00;;;6.97;;
2868;SDS011;1442;47.448;8.582;2023-08-20T10:43:24;12.83;;;7.53;;
2868;SDS011;1442;47.448;8.582;2023-08-20T10:46:01;16.95;;;7.75;;
2868;SDS011;1442;47.448;8.582;2023-08-20T10:48:29;15.15;;;7.55;;
2868;SDS011;1442;47.448;8.582;2023-08-20T10:50:56;11.32;;;6.97;;
2868;SDS011;1442;47.448;8.582;2023-08-20T10:53:23;12.75;;;7.35;;
2868;SDS011;1442;47.448;8.582;2023-08-20T10:55:51;12.43;;;6.97;;
2868;SDS011;1442;47.448;8.582;2023-08-20T10:58:19;13.60;;;7.00;;
2868;SDS011;1442;47.448;8.582;2023-08-20T11:03:33;12.75;;;6.63;;
2868;SDS011;1442;47.448;8.582;2023-08-20T11:06:01;13.35;;;6.65;;
2868;SDS011;1442;47.448;8.582;2023-08-20T11:08:29;12.75;;;7.25;;
2868;SDS011;1442;47.448;8.582;2023-08-20T11:10:56;14.25;;;6.30;;
2868;SDS011;1442;47.448;8.582;2023-08-20T11:13:25;12.82;;;6.50;;
2868;SDS011;1442;47.448;8.582;2023-08-20T11:15:52;16.83;;;6.75;;
2868;SDS011;1442;47.448;8.582;2023-08-20T11:18:19;12.95;;;6.32;;
2868;SDS011;1442;47.448;8.582;2023-08-20T11:20:47;10.47;;;7.03;;
2868;SDS011;1442;47.448;8.582;2023-08-20T11:23:15;10.60;;;6.67;;
2868;SDS011;1442;47.448;8.582;2023-08-20T11:25:42;12.68;;;6.53;;
2868;SDS011;1442;47.448;8.582;2023-08-20T11:28:09;14.30;;;7.30;;
2868;SDS011;1442;47.448;8.582;2023-08-20T11:30:36;12.88;;;6.78;;
2868;SDS011;1442;47.448;8.582;2023-08-20T11:33:03;12.02;;;6.68;;
2868;SDS011;1442;47.448;8.582;2023-08-20T11:35:31;15.50;;;7.30;;
2868;SDS011;1442;47.448;8.582;2023-08-20T11:38:00;12.73;;;6.80;;
2868;SDS011;1442;47.448;8.582;2023-08-20T11:40:27;12.30;;;6.20;;
2868;SDS011;1442;47.448;8.582;2023-08-20T11:42:54;12.05;;;6.43;;
2868;SDS011;1442;47.448;8.582;2023-08-20T11:45:21;12.52;;;6.22;;
2868;SDS011;1442;47.448;8.582;2023-08-20T11:47:48;14.00;;;6.70;;
2868;SDS011;1442;47.448;8.582;2023-08-20T11:50:16;10.27;;;6.40;;
2868;SDS011;1442;47.448;8.582;2023-08-20T11:52:47;15.70;;;6.30;;
2868;SDS011;1442;47.448;8.582;2023-08-20T11:55:21;9.95;;;6.20;;
2868;SDS011;1442;47.448;8.582;2023-08-20T11:57:49;10.80;;;6.35;;
2868;SDS011;1442;47.448;8.582;2023-08-20T12:00:23;9.18;;;5.53;;
2868;SDS011;1442;47.448;8.582;2023-08-20T12:02:52;13.43;;;6.00;;
2868;SDS011;1442;47.448;8.582;2023-08-20T12:05:20;14.60;;;6.40;;
2868;SDS011;1442;47.448;8.582;2023-08-20T12:07:54;12.05;;;5.90;;
2868;SDS011;1442;47.448;8.582;2023-08-20T12:10:24;11.90;;;5.60;;
2868;SDS011;1442;47.448;8.582;2023-08-20T12:12:51;10.63;;;5.55;;
2868;SDS011;1442;47.448;8.582;2023-08-20T12:15:19;16.40;;;5.95;;
2868;SDS011;1442;47.448;8.582;2023-08-20T12:17:56;13.25;;;6.18;;
2868;SDS011;1442;47.448;8.582;2023-08-20T12:20:23;14.40;;;7.03;;
2868;SDS011;1442;47.448;8.582;2023-08-20T12:22:50;13.85;;;6.70;;
2868;SDS011;1442;47.448;8.582;2023-08-20T12:25:17;16.15;;;6.50;;
2868;SDS011;1442;47.448;8.582;2023-08-20T12:27:46;12.45;;;6.30;;
2868;SDS011;1442;47.448;8.582;2023-08-20T12:30:13;10.38;;;6.90;;
2868;SDS011;1442;47.448;8.582;2023-08-20T12:32:40;16.67;;;7.10;;
2868;SDS011;1442;47.448;8.582;2023-08-20T12:35:08;17.45;;;6.55;;
2868;SDS011;1442;47.448;8.582;2023-08-20T12:37:35;12.48;;;7.07;;
2868;SDS011;1442;47.448;8.582;2023-08-20T12:40:02;14.25;;;6.53;;
2868;SDS011;1442;47.448;8.582;2023-08-20T12:42:32;13.73;;;6.45;;
2868;SDS011;1442;47.448;8.582;2023-08-20T12:45:01;12.77;;;6.53;;
2868;SDS011;1442;47.448;8.582;2023-08-20T12:47:28;9.70;;;6.23;;
2868;SDS011;1442;47.448;8.582;2023-08-20T12:49:55;15.88;;;6.40;;
2868;SDS011;1442;47.448;8.582;2023-08-20T12:52:22;11.23;;;6.32;;
2868;SDS011;1442;47.448;8.582;2023-08-20T12:54:49;13.43;;;6.57;;
2868;SDS011;1442;47.448;8.582;2023-08-20T12:57:17;11.57;;;6.70;;
2868;SDS011;1442;47.448;8.582;2023-08-20T12:59:44;13.57;;;6.88;;
2868;SDS011;1442;47.448;8.582;2023-08-20T13:02:12;11.53;;;6.23;;
2868;SDS011;1442;47.448;8.582;2023-08-20T13:04:41;16.70;;;6.60;;
2868;SDS011;1442;47.448;8.582;2023-08-20T13:07:08;9.40;;;6.38;;
2868;SDS011;1442;47.448;8.582;2023-08-20T13:09:35;14.45;;;5.85;;
2868;SDS011;1442;47.448;8.582;2023-08-20T13:12:03;10.50;;;6.07;;
2868;SDS011;1442;47.448;8.582;2023-08-20T13:14:30;11.82;;;6.28;;
2868;SDS011;1442;47.448;8.582;2023-08-20T13:16:58;11.07;;;6.07;;
2868;SDS011;1442;47.448;8.582;2023-08-20T13:19:26;12.02;;;5.72;;
2868;SDS011;1442;47.448;8.582;2023-08-20T13:21:53;10.77;;;5.82;;
2868;SDS011;1442;47.448;8.582;2023-08-20T13:24:21;14.13;;;5.70;;
2868;SDS011;1442;47.448;8.582;2023-08-20T13:26:48;12.23;;;5.68;;
2868;SDS011;1442;47.448;8.582;2023-08-20T13:29:15;12.48;;;6.13;;
2868;SDS011;1442;47.448;8.582;2023-08-20T13:31:42;10.20;;;5.70;;
2868;SDS011;1442;47.448;8.582;2023-08-20T13:34:09;11.57;;;5.93;;
2868;SDS011;1442;47.448;8.582;2023-08-20T13:36:38;12.40;;;5.38;;
2868;SDS011;1442;47.448;8.582;2023-08-20T13:39:05;10.23;;;5.80;;
2868;SDS011;1442;47.448;8.582;2023-08-20T13:41:32;13.02;;;5.65;;
2868;SDS011;1442;47.448;8.582;2023-08-20T13:43:59;11.95;;;5.32;;
2868;SDS011;1442;47.448;8.582;2023-08-20T13:46:26;11.80;;;5.10;;
2868;SDS011;1442;47.448;8.582;2023-08-20T13:48:54;9.95;;;5.50;;
2868;SDS011;1442;47.448;8.582;2023-08-20T13:51:21;11.30;;;5.15;;
2868;SDS011;1442;47.448;8.582;2023-08-20T13:53:50;10.15;;;5.55;;
2868;SDS011;1442;47.448;8.582;2023-08-20T13:56:17;13.07;;;4.90;;
2868;SDS011;1442;47.448;8.582;2023-08-20T13:58:44;10.32;;;5.40;;
2868;SDS011;1442;47.448;8.582;2023-08-20T14:01:11;11.63;;;5.20;;
2868;SDS011;1442;47.448;8.582;2023-08-20T14:03:38;10.13;;;5.20;;
2868;SDS011;1442;47.448;8.582;2023-08-20T14:06:05;10.50;;;4.90;;
2868;SDS011;1442;47.448;8.582;2023-08-20T14:08:33;8.13;;;5.13;;
2868;SDS011;1442;47.448;8.582;2023-08-20T14:11:01;9.85;;;4.97;;
2868;SDS011;1442;47.448;8.582;2023-08-20T14:13:28;9.23;;;4.83;;
2868;SDS011;1442;47.448;8.582;2023-08-20T14:15:58;13.88;;;5.28;;
2868;SDS011;1442;47.448;8.582;2023-08-20T14:18:26;11.30;;;5.30;;
2868;SDS011;1442;47.448;8.582;2023-08-20T14:20:53;15.18;;;5.30;;
2868;SDS011;1442;47.448;8.582;2023-08-20T14:23:20;10.40;;;5.13;;
2868;SDS011;1442;47.448;8.582;2023-08-20T14:25:47;10.93;;;5.68;;
2868;SDS011;1442;47.448;8.582;2023-08-20T14:28:15;10.23;;;5.40;;
2868;SDS011;1442;47.448;8.582;2023-08-20T14:30:43;9.88;;;5.50;;
2868;SDS011;1442;47.448;8.582;2023-08-20T14:33:10;15.32;;;5.78;;
2868;SDS011;1442;47.448;8.582;2023-08-20T14:35:37;9.57;;;5.65;;
2868;SDS011;1442;47.448;8.582;2023-08-20T14:38:04;10.27;;;6.03;;
2868;SDS011;1442;47.448;8.582;2023-08-20T14:40:35;13.15;;;5.60;;
2868;SDS011;1442;47.448;8.582;2023-08-20T14:43:04;12.93;;;5.57;;
2868;SDS011;1442;47.448;8.582;2023-08-20T14:45:32;9.30;;;4.88;;
2868;SDS011;1442;47.448;8.582;2023-08-20T14:47:59;11.40;;;5.35;;
2868;SDS011;1442;47.448;8.582;2023-08-20T14:50:27;12.13;;;5.70;;
2868;SDS011;1442;47.448;8.582;2023-08-20T14:52:55;10.73;;;5.53;;
2868;SDS011;1442;47.448;8.582;2023-08-20T14:55:22;7.95;;;5.13;;
2868;SDS011;1442;47.448;8.582;2023-08-20T14:57:49;13.03;;;5.57;;
2868;SDS011;1442;47.448;8.582;2023-08-20T15:00:18;13.30;;;5.85;;
2868;SDS011;1442;47.448;8.582;2023-08-20T15:02:49;13.82;;;5.45;;
2868;SDS011;1442;47.448;8.582;2023-08-20T15:05:16;12.97;;;5.60;;
2868;SDS011;1442;47.448;8.582;2023-08-20T15:07:43;14.05;;;5.20;;
2868;SDS011;1442;47.448;8.582;2023-08-20T15:10:10;15.43;;;5.65;;
2868;SDS011;1442;47.448;8.582;2023-08-20T15:12:37;12.52;;;6.38;;
2868;SDS011;1442;47.448;8.582;2023-08-20T15:15:05;10.07;;;5.50;;